Time;durP1;ratioP1;P1;durP2;ratioP2;P2;SDS_P1;SDS_P2;PMS_P1;PMS_P2;Temp;Humidity;BMP_temperature;BMP_pressure;BME280_temperature;BME280_humidity;BME280_pressure;Samples;Min_cycle;Max_cycle;Signal;HPM_P1;HPM_P2
2023/07/03 00:02:25;;;;;;;36.10;16.08;;;12.10;96.20;;;;;;4995395;28;20116;-73
2023/07/03 00:04:50;;;;;;;31.88;16.05;;;12.10;96.40;;;;;;5013873;28;20026;-73
2023/07/03 00:07:16;;;;;;;27.52;15.90;;;12.20;97.00;;;;;;5012340;28;20033;-75
2023/07/03 00:09:42;;;;;;;29.90;15.52;;;12.20;96.70;;;;;;5014775;28;20113;-74
2023/07/03 00:12:10;;;;;;;30.85;16.55;;;12.20;96.60;;;;;;5015043;28;20038;-74
2023/07/03 00:14:36;;;;;;;31.77;16.77;;;12.20;96.90;;;;;;4998402;28;20048;-74
2023/07/03 00:17:01;;;;;;;34.50;17.10;;;12.20;97.00;;;;;;5015373;28;20022;-74
2023/07/03 00:19:30;;;;;;;31.85;16.98;;;12.20;97.10;;;;;;5015108;28;20130;-75
2023/07/03 00:21:59;;;;;;;31.30;14.80;;;12.30;97.20;;;;;;5013289;28;20049;-74
2023/07/03 00:24:24;;;;;;;30.15;17.02;;;12.20;97.30;;;;;;4997057;28;20394;-74
2023/07/03 00:26:52;;;;;;;34.13;16.77;;;12.20;97.00;;;;;;5015025;28;20030;-74
2023/07/03 00:29:24;;;;;;;31.67;15.85;;;12.20;97.00;;;;;;5015105;28;20419;-74
2023/07/03 00:31:50;;;;;;;34.10;17.05;;;12.10;96.80;;;;;;4998102;28;20335;-73
2023/07/03 00:34:16;;;;;;;34.17;15.93;;;12.00;96.10;;;;;;5015159;28;20030;-74
2023/07/03 00:36:42;;;;;;;34.05;16.00;;;12.00;96.00;;;;;;5015232;28;20071;-74
2023/07/03 00:39:08;;;;;;;29.13;15.63;;;12.00;96.40;;;;;;5014760;28;20062;-74
2023/07/03 00:41:34;;;;;;;34.92;16.42;;;12.10;97.00;;;;;;4997882;28;20327;-74
2023/07/03 00:44:00;;;;;;;30.92;14.52;;;12.10;96.80;;;;;;5006546;28;20113;-74
2023/07/03 00:46:25;;;;;;;30.92;15.88;;;12.10;96.90;;;;;;5015182;28;20494;-74
2023/07/03 00:48:51;;;;;;;30.33;15.00;;;12.10;96.70;;;;;;5015351;28;20514;-74
2023/07/03 00:51:17;;;;;;;33.95;15.73;;;12.00;96.50;;;;;;5014916;28;20411;-74
2023/07/03 00:53:43;;;;;;;37.47;15.65;;;12.00;96.50;;;;;;5015488;28;20500;-74
2023/07/03 00:56:10;;;;;;;30.00;15.65;;;12.00;97.30;;;;;;5015266;28;20038;-74
2023/07/03 00:58:36;;;;;;;32.53;15.85;;;12.00;96.80;;;;;;5016184;28;20113;-75
2023/07/03 01:01:24;;;;;;;29.30;15.10;;;12.00;96.70;;;;;;5015749;28;20112;-74
2023/07/03 01:04:03;;;;;;;32.92;16.08;;;12.00;96.70;;;;;;5015033;28;20045;-74
2023/07/03 01:06:35;;;;;;;30.38;15.57;;;11.90;96.50;;;;;;5011388;28;20029;-74
2023/07/03 01:09:02;;;;;;;33.97;16.33;;;11.90;96.50;;;;;;4991121;28;20109;-73
2023/07/03 01:11:28;;;;;;;29.80;14.43;;;12.00;96.80;;;;;;5014888;28;20092;-74
2023/07/03 01:13:56;;;;;;;31.45;15.80;;;11.90;96.90;;;;;;5015864;28;20095;-73
2023/07/03 01:16:23;;;;;;;32.90;15.85;;;11.90;96.70;;;;;;5019185;28;20077;-74
2023/07/03 01:18:52;;;;;;;34.50;15.75;;;11.90;96.50;;;;;;5018182;28;20065;-75
2023/07/03 01:21:28;;;;;;;29.23;14.77;;;11.90;96.30;;;;;;5015316;28;20129;-74
2023/07/03 01:24:00;;;;;;;30.13;14.95;;;11.90;98.00;;;;;;5019020;28;20026;-75
2023/07/03 01:26:27;;;;;;;32.25;14.98;;;12.10;97.60;;;;;;5001728;28;20057;-73
2023/07/03 01:28:57;;;;;;;30.70;14.27;;;12.10;98.00;;;;;;5019830;28;20026;-75
2023/07/03 01:31:25;;;;;;;28.98;14.75;;;12.20;98.00;;;;;;5019491;28;20113;-74
2023/07/03 01:33:52;;;;;;;29.92;14.57;;;12.30;97.80;;;;;;5019704;28;20034;-74
2023/07/03 01:36:17;;;;;;;28.75;15.52;;;12.30;97.80;;;;;;5017263;28;20022;-74
2023/07/03 01:38:45;;;;;;;33.88;15.02;;;12.20;97.50;;;;;;5017200;28;20034;-74
2023/07/03 01:41:13;;;;;;;34.03;14.38;;;12.10;97.60;;;;;;5017483;28;20060;-74
2023/07/03 01:43:40;;;;;;;31.45;14.55;;;12.10;97.80;;;;;;5000780;28;20073;-74
2023/07/03 01:46:07;;;;;;;30.40;14.55;;;12.00;97.60;;;;;;5018070;28;20026;-74
2023/07/03 01:48:33;;;;;;;28.23;14.13;;;12.00;97.40;;;;;;5000587;28;20034;-74
2023/07/03 01:50:59;;;;;;;30.23;14.35;;;11.90;97.30;;;;;;5015874;28;20022;-74
2023/07/03 01:53:43;;;;;;;34.03;15.63;;;11.90;96.90;;;;;;5017019;28;20370;-74
2023/07/03 01:56:24;;;;;;;26.95;14.57;;;11.90;97.20;;;;;;5000678;28;20022;-74
2023/07/03 01:58:56;;;;;;;31.80;14.55;;;11.90;96.60;;;;;;5015470;28;20097;-74
2023/07/03 02:01:33;;;;;;;29.13;14.43;;;12.00;96.60;;;;;;5017368;28;20037;-74
2023/07/03 02:04:40;;;;;;;29.23;14.43;;;12.00;96.70;;;;;;5017074;28;20033;-74
2023/07/03 02:07:09;;;;;;;32.45;14.00;;;12.10;96.70;;;;;;4991863;28;20034;-74
2023/07/03 02:09:35;;;;;;;26.08;14.10;;;12.30;98.00;;;;;;4997332;28;20026;-74
2023/07/03 02:12:03;;;;;;;31.48;15.35;;;12.50;97.70;;;;;;5015604;28;20032;-74
2023/07/03 02:14:29;;;;;;;27.13;14.25;;;12.60;97.70;;;;;;5013499;28;20435;-74
2023/07/03 02:16:54;;;;;;;26.77;13.57;;;12.60;97.70;;;;;;5015483;28;20034;-74
2023/07/03 02:19:28;;;;;;;28.77;13.88;;;12.80;98.00;;;;;;4998742;28;20057;-74
2023/07/03 02:21:55;;;;;;;32.65;13.65;;;13.00;98.00;;;;;;5012381;28;20038;-74
2023/07/03 02:24:22;;;;;;;25.38;12.43;;;13.20;97.80;;;;;;5015424;28;20701;-73
2023/07/03 02:26:48;;;;;;;35.22;14.18;;;13.40;96.50;;;;;;4998530;28;20121;-74
2023/07/03 02:29:13;;;;;;;28.45;13.70;;;13.60;96.30;;;;;;5013840;28;20072;-74
2023/07/03 02:31:39;;;;;;;27.10;13.20;;;13.80;95.90;;;;;;5016888;28;20034;-74
2023/07/03 02:34:04;;;;;;;29.90;12.85;;;14.00;94.30;;;;;;4997769;28;20038;-74
2023/07/03 02:36:33;;;;;;;25.30;12.82;;;14.30;93.10;;;;;;5015358;28;20033;-75
2023/07/03 02:39:01;;;;;;;25.48;12.18;;;14.60;92.50;;;;;;5016771;28;20109;-74
2023/07/03 02:41:27;;;;;;;30.48;12.20;;;14.70;92.40;;;;;;5015450;28;20053;-74
2023/07/03 02:43:52;;;;;;;28.00;12.63;;;14.80;91.30;;;;;;5016216;28;20018;-75
2023/07/03 02:46:18;;;;;;;26.55;11.63;;;15.00;90.70;;;;;;5015594;28;20033;-74
2023/07/03 02:48:45;;;;;;;28.90;11.93;;;15.20;89.70;;;;;;5018012;28;20049;-74
2023/07/03 02:51:10;;;;;;;25.60;11.75;;;15.30;89.30;;;;;;5012433;28;20034;-74
2023/07/03 02:53:36;;;;;;;24.33;12.05;;;15.40;88.90;;;;;;5015555;28;20527;-74
2023/07/03 02:56:02;;;;;;;25.77;11.73;;;15.40;88.90;;;;;;4996258;28;20030;-74
2023/07/03 02:58:27;;;;;;;25.35;11.80;;;15.40;88.80;;;;;;5017348;28;20438;-73
2023/07/03 03:00:54;;;;;;;20.90;10.88;;;15.40;88.50;;;;;;5015233;28;20025;-74
2023/07/03 03:03:19;;;;;;;22.75;11.43;;;15.60;88.00;;;;;;5009151;28;20026;-75
2023/07/03 03:05:45;;;;;;;24.50;11.55;;;15.60;87.80;;;;;;4997745;28;20292;-74
2023/07/03 03:08:11;;;;;;;27.02;12.63;;;15.70;87.50;;;;;;5016498;28;20049;-74
2023/07/03 03:10:37;;;;;;;24.33;11.18;;;15.90;87.10;;;;;;5016120;28;20065;-74
2023/07/03 03:13:03;;;;;;;20.63;10.82;;;16.00;86.70;;;;;;5018072;28;20062;-76
2023/07/03 03:15:34;;;;;;;24.02;11.90;;;16.10;86.40;;;;;;5016456;28;20128;-74
2023/07/03 03:17:59;;;;;;;18.15;9.95;;;16.10;86.40;;;;;;5015004;28;20025;-72
2023/07/03 03:20:25;;;;;;;21.33;10.65;;;16.10;86.30;;;;;;5011658;28;20109;-74
2023/07/03 03:22:51;;;;;;;21.92;10.55;;;16.10;86.30;;;;;;4999531;28;20037;-74
2023/07/03 03:25:16;;;;;;;23.95;11.13;;;16.10;86.50;;;;;;5009348;28;20053;-74
2023/07/03 03:27:42;;;;;;;29.63;11.57;;;16.10;86.70;;;;;;5017688;28;20080;-74
2023/07/03 03:30:08;;;;;;;22.48;11.45;;;16.00;87.00;;;;;;5017430;28;20299;-74
2023/07/03 03:32:34;;;;;;;23.92;11.05;;;15.90;87.40;;;;;;5000088;28;20545;-74
2023/07/03 03:35:00;;;;;;;25.08;11.35;;;15.80;87.10;;;;;;4998853;28;20109;-74
2023/07/03 03:37:26;;;;;;;24.92;10.35;;;15.90;87.30;;;;;;5016255;28;20029;-74
2023/07/03 03:39:52;;;;;;;22.55;10.50;;;15.80;87.10;;;;;;5016712;28;20026;-74
2023/07/03 03:42:17;;;;;;;22.42;10.45;;;15.80;87.50;;;;;;4999175;28;20046;-73
2023/07/03 03:44:43;;;;;;;22.33;10.60;;;15.80;87.60;;;;;;5016593;28;20101;-74
2023/07/03 03:47:08;;;;;;;25.52;11.13;;;15.70;87.90;;;;;;5015956;28;20378;-74
2023/07/03 03:49:34;;;;;;;21.20;9.98;;;15.70;87.80;;;;;;4997698;28;20030;-73
2023/07/03 03:51:59;;;;;;;24.15;10.90;;;15.80;87.80;;;;;;5006897;28;20022;-74
2023/07/03 03:54:28;;;;;;;21.60;10.68;;;15.80;87.50;;;;;;5012832;28;20030;-73
2023/07/03 03:56:53;;;;;;;23.08;10.75;;;15.80;87.70;;;;;;5013436;28;20365;-74
2023/07/03 03:59:21;;;;;;;23.58;10.20;;;15.80;87.70;;;;;;5014457;28;20105;-74
2023/07/03 04:01:48;;;;;;;23.83;10.52;;;15.90;87.50;;;;;;5012912;28;20366;-74
2023/07/03 04:04:14;;;;;;;23.13;10.90;;;15.90;87.70;;;;;;5014803;28;20026;-74
2023/07/03 04:06:39;;;;;;;20.10;10.30;;;15.90;86.90;;;;;;5013207;28;20295;-73
2023/07/03 04:09:05;;;;;;;22.05;11.18;;;15.90;87.30;;;;;;5016971;28;20033;-75
2023/07/03 04:11:30;;;;;;;22.10;10.13;;;15.90;87.50;;;;;;5009897;28;20029;-74
2023/07/03 04:13:56;;;;;;;20.98;10.35;;;15.90;88.00;;;;;;5022141;28;20427;-75
2023/07/03 04:16:24;;;;;;;25.63;9.93;;;15.90;87.80;;;;;;5016801;28;20036;-74
2023/07/03 04:18:49;;;;;;;20.90;10.30;;;15.90;87.80;;;;;;4998772;28;20052;-74
2023/07/03 04:21:15;;;;;;;23.77;10.48;;;15.90;87.80;;;;;;5009738;28;20422;-74
2023/07/03 04:23:41;;;;;;;16.95;9.85;;;15.90;87.50;;;;;;5013661;28;20018;-74
2023/07/03 04:26:06;;;;;;;19.50;10.38;;;16.00;87.30;;;;;;5013315;28;20034;-74
2023/07/03 04:28:32;;;;;;;23.02;9.77;;;16.00;87.00;;;;;;5011989;28;20033;-74
2023/07/03 04:30:57;;;;;;;18.33;9.02;;;16.10;87.00;;;;;;5015909;28;20026;-74
2023/07/03 04:33:23;;;;;;;26.63;9.90;;;16.10;86.00;;;;;;5012482;28;20034;-74
2023/07/03 04:35:49;;;;;;;22.38;10.02;;;16.20;86.50;;;;;;5008252;28;20112;-74
2023/07/03 04:38:18;;;;;;;20.73;9.32;;;16.20;86.50;;;;;;5016253;28;20042;-74
2023/07/03 04:40:45;;;;;;;18.63;9.65;;;16.30;85.90;;;;;;5007773;28;20030;-75
2023/07/03 04:43:11;;;;;;;20.27;9.02;;;16.30;85.90;;;;;;5011491;28;20048;-74
2023/07/03 04:45:51;;;;;;;20.92;10.20;;;16.40;85.60;;;;;;5015032;28;20041;-73
2023/07/03 04:48:17;;;;;;;21.88;9.05;;;16.50;86.10;;;;;;5013397;28;20026;-74
2023/07/03 04:50:48;;;;;;;20.20;9.07;;;16.40;85.60;;;;;;5013677;28;20332;-74
2023/07/03 04:53:14;;;;;;;21.02;8.77;;;16.50;85.30;;;;;;5016384;28;20022;-74
2023/07/03 04:55:41;;;;;;;19.73;9.38;;;16.50;85.00;;;;;;5016140;28;20176;-74
2023/07/03 04:58:09;;;;;;;21.95;9.45;;;16.50;85.30;;;;;;5016052;28;20049;-74
2023/07/03 05:00:35;;;;;;;23.33;10.35;;;16.60;86.30;;;;;;5016003;28;20022;-74
2023/07/03 05:03:05;;;;;;;24.73;10.15;;;16.50;86.30;;;;;;5014904;28;20417;-73
2023/07/03 05:05:30;;;;;;;21.75;9.90;;;16.50;86.30;;;;;;5010087;28;20105;-74
2023/07/03 05:07:56;;;;;;;25.15;9.88;;;16.50;85.60;;;;;;5016026;28;20053;-74
2023/07/03 05:10:23;;;;;;;21.80;10.00;;;16.50;85.90;;;;;;5013951;28;20058;-74
2023/07/03 05:12:49;;;;;;;19.38;9.05;;;16.50;85.50;;;;;;5013124;28;20040;-74
2023/07/03 05:15:16;;;;;;;20.40;9.95;;;16.50;85.70;;;;;;4998691;28;20026;-74
2023/07/03 05:17:42;;;;;;;21.30;9.57;;;16.50;85.10;;;;;;5015094;28;20045;-75
2023/07/03 05:20:13;;;;;;;20.52;10.45;;;16.60;85.00;;;;;;4995369;28;20068;-74
2023/07/03 05:22:41;;;;;;;22.50;10.10;;;16.60;85.10;;;;;;5014251;28;20346;-74
2023/07/03 05:25:09;;;;;;;18.88;9.98;;;16.70;84.70;;;;;;5016103;28;20018;-74
2023/07/03 05:27:35;;;;;;;18.45;8.60;;;16.80;85.00;;;;;;5015814;28;20018;-74
2023/07/03 05:30:02;;;;;;;17.77;8.88;;;16.90;84.50;;;;;;5015997;28;20044;-75
2023/07/03 05:32:27;;;;;;;22.50;9.18;;;16.90;84.60;;;;;;5013676;28;20034;-75
2023/07/03 05:34:53;;;;;;;20.75;9.48;;;17.00;84.80;;;;;;5015264;28;20030;-75
2023/07/03 05:37:19;;;;;;;17.73;9.00;;;17.00;84.20;;;;;;4998066;28;20108;-75
2023/07/03 05:39:47;;;;;;;17.83;9.43;;;17.00;84.10;;;;;;5015796;28;20038;-75
2023/07/03 05:42:14;;;;;;;19.30;8.63;;;17.00;84.40;;;;;;5015518;28;20358;-74
2023/07/03 05:44:39;;;;;;;17.50;9.30;;;17.10;84.60;;;;;;5015088;28;20029;-74
2023/07/03 05:47:05;;;;;;;20.23;9.43;;;17.10;84.60;;;;;;5013634;28;20022;-74
2023/07/03 05:49:31;;;;;;;17.20;8.85;;;17.10;85.00;;;;;;5015677;28;20108;-74
2023/07/03 05:51:56;;;;;;;17.48;8.57;;;17.30;84.30;;;;;;4996977;28;20415;-74
2023/07/03 05:54:25;;;;;;;22.20;9.75;;;17.30;83.80;;;;;;5015709;28;20072;-74
2023/07/03 05:57:04;;;;;;;19.20;8.35;;;17.50;83.60;;;;;;4998350;28;20089;-76
2023/07/03 05:59:30;;;;;;;17.17;8.07;;;17.70;83.40;;;;;;4998130;28;20030;-76
2023/07/03 06:01:56;;;;;;;18.45;9.35;;;17.70;83.30;;;;;;5017529;28;20048;-76
2023/07/03 06:04:22;;;;;;;17.00;8.88;;;17.90;82.40;;;;;;5018439;28;20088;-76
2023/07/03 06:06:58;;;;;;;18.35;7.95;;;17.80;82.50;;;;;;5016063;28;20053;-75
2023/07/03 06:09:25;;;;;;;20.15;8.30;;;17.80;82.60;;;;;;5013030;28;20482;-75
2023/07/03 06:11:55;;;;;;;19.30;8.38;;;17.90;82.30;;;;;;5001780;28;20029;-74
2023/07/03 06:14:22;;;;;;;18.90;8.52;;;18.10;82.00;;;;;;5019102;28;20068;-75
2023/07/03 06:16:49;;;;;;;17.30;8.13;;;18.10;81.70;;;;;;5019249;28;20026;-75
2023/07/03 06:19:16;;;;;;;19.50;8.68;;;18.00;81.70;;;;;;5018930;28;20034;-75
2023/07/03 06:21:42;;;;;;;19.45;8.68;;;17.90;81.90;;;;;;5017265;28;20334;-75
2023/07/03 06:24:10;;;;;;;18.35;8.48;;;18.00;82.10;;;;;;5018373;28;20359;-75
2023/07/03 06:26:39;;;;;;;22.30;9.20;;;18.00;81.90;;;;;;4995980;28;20063;-74
2023/07/03 06:29:06;;;;;;;18.55;9.50;;;18.10;81.80;;;;;;5002144;28;20018;-75
2023/07/03 06:31:32;;;;;;;20.08;9.05;;;18.10;81.50;;;;;;5008958;28;20022;-74
2023/07/03 06:33:58;;;;;;;18.50;8.38;;;18.00;81.80;;;;;;5017760;28;20041;-75
2023/07/03 06:36:24;;;;;;;23.27;9.73;;;18.10;82.00;;;;;;5016314;28;20065;-74
2023/07/03 06:38:58;;;;;;;17.98;8.38;;;18.20;81.60;;;;;;4998961;28;20034;-74
2023/07/03 06:41:26;;;;;;;;;;;18.20;80.80;;;;;;5017184;28;20064;-74
2023/07/03 06:43:52;;;;;;;17.85;8.13;;;18.20;80.50;;;;;;5017269;28;20366;-74
2023/07/03 06:46:18;;;;;;;17.50;8.40;;;18.20;80.80;;;;;;5013822;28;20026;-75
2023/07/03 06:48:44;;;;;;;18.33;8.50;;;18.10;80.60;;;;;;5017777;28;20033;-74
2023/07/03 06:51:11;;;;;;;17.25;8.35;;;18.10;80.90;;;;;;5016192;28;20426;-74
2023/07/03 06:53:40;;;;;;;21.73;9.15;;;18.00;81.20;;;;;;5006750;28;20026;-74
2023/07/03 06:56:08;;;;;;;21.42;8.45;;;18.10;80.90;;;;;;4998795;28;20031;-74
2023/07/03 06:58:34;;;;;;;18.95;8.77;;;18.20;81.20;;;;;;5017198;28;20097;-75
2023/07/03 07:01:11;;;;;;;21.45;9.27;;;18.50;80.40;;;;;;5015993;28;20026;-74
2023/07/03 07:03:38;;;;;;;20.88;9.63;;;18.50;79.50;;;;;;5017118;28;20112;-75
2023/07/03 07:06:12;;;;;;;19.88;8.68;;;18.50;79.80;;;;;;5011410;28;20022;-74
2023/07/03 07:08:38;;;;;;;17.73;8.30;;;18.50;79.90;;;;;;5013828;28;20030;-74
2023/07/03 07:11:11;;;;;;;21.13;8.70;;;18.90;80.00;;;;;;5016906;28;20346;-74
2023/07/03 07:13:39;;;;;;;16.45;8.48;;;19.00;79.60;;;;;;5005504;28;20026;-74
2023/07/03 07:16:09;;;;;;;19.60;8.15;;;19.30;78.50;;;;;;4981103;28;20041;-74
2023/07/03 07:18:38;;;;;;;16.92;8.18;;;19.30;78.50;;;;;;5017800;28;20026;-74
2023/07/03 07:21:04;;;;;;;18.73;8.63;;;19.10;78.00;;;;;;5016647;28;20079;-74
2023/07/03 07:23:29;;;;;;;18.98;8.55;;;19.30;77.90;;;;;;5014846;28;20417;-74
2023/07/03 07:25:55;;;;;;;16.75;7.68;;;19.40;77.80;;;;;;5013746;28;20025;-74
2023/07/03 07:28:21;;;;;;;19.80;8.98;;;19.30;76.80;;;;;;5017721;28;20022;-74
2023/07/03 07:30:48;;;;;;;17.23;8.00;;;19.50;77.90;;;;;;4997999;28;20358;-74
2023/07/03 07:33:14;;;;;;;20.23;8.73;;;19.50;77.40;;;;;;4999345;28;20422;-75
2023/07/03 07:35:41;;;;;;;18.67;8.57;;;19.50;76.80;;;;;;5014319;28;20064;-74
2023/07/03 07:38:06;;;;;;;21.20;8.50;;;19.40;76.40;;;;;;5016386;28;20322;-74
2023/07/03 07:40:32;;;;;;;18.73;8.63;;;19.60;76.40;;;;;;5016513;28;20108;-75
2023/07/03 07:42:57;;;;;;;20.10;8.10;;;20.00;76.10;;;;;;5016314;28;20057;-74
2023/07/03 07:45:23;;;;;;;20.20;8.18;;;20.50;74.60;;;;;;5005876;28;20026;-75
2023/07/03 07:47:48;;;;;;;26.27;8.95;;;20.60;73.50;;;;;;5017174;28;20034;-75
2023/07/03 07:50:14;;;;;;;22.23;8.65;;;20.60;74.60;;;;;;5015972;28;20388;-74
2023/07/03 07:52:39;;;;;;;19.33;8.90;;;20.30;74.80;;;;;;5013992;28;20533;-74
2023/07/03 07:55:05;;;;;;;18.35;9.00;;;20.40;74.70;;;;;;5017176;28;20340;-74
2023/07/03 07:57:31;;;;;;;18.13;7.93;;;20.20;75.70;;;;;;5017137;28;20029;-74
2023/07/03 07:59:57;;;;;;;22.73;9.05;;;19.70;76.40;;;;;;5017094;28;20440;-74
2023/07/03 08:02:22;;;;;;;21.50;8.93;;;19.30;77.90;;;;;;5016879;28;20375;-74
2023/07/03 08:04:48;;;;;;;19.20;8.73;;;19.00;78.00;;;;;;5016365;28;20453;-74
2023/07/03 08:07:14;;;;;;;19.40;9.10;;;19.20;78.00;;;;;;5015942;28;20026;-74
2023/07/03 08:09:39;;;;;;;17.33;8.70;;;20.00;76.50;;;;;;5015366;28;20080;-75
2023/07/03 08:12:05;;;;;;;19.95;9.05;;;20.00;75.50;;;;;;5017126;28;20056;-75
2023/07/03 08:14:31;;;;;;;20.60;8.48;;;20.00;75.50;;;;;;5015489;28;20069;-74
2023/07/03 08:16:57;;;;;;;21.58;7.43;;;20.00;74.70;;;;;;5015987;28;20038;-74
2023/07/03 08:19:23;;;;;;;19.08;8.10;;;19.90;75.30;;;;;;5015824;28;20050;-74
2023/07/03 08:21:48;;;;;;;22.80;9.18;;;19.90;75.60;;;;;;5013771;28;20088;-74
2023/07/03 08:24:14;;;;;;;20.73;8.88;;;20.60;73.60;;;;;;5015698;28;20069;-74
2023/07/03 08:26:41;;;;;;;18.23;7.97;;;20.20;73.90;;;;;;5014084;28;20031;-75
2023/07/03 08:29:07;;;;;;;22.75;8.25;;;19.90;74.50;;;;;;5016683;28;20505;-74
2023/07/03 08:31:33;;;;;;;18.63;7.80;;;19.90;74.80;;;;;;5016494;28;20036;-74
2023/07/03 08:33:59;;;;;;;17.92;7.88;;;20.10;74.70;;;;;;5016585;28;20034;-74
2023/07/03 08:36:24;;;;;;;20.70;8.25;;;20.00;74.70;;;;;;5013389;28;20041;-74
2023/07/03 08:38:50;;;;;;;24.67;8.48;;;20.10;75.60;;;;;;5016385;28;20104;-74
2023/07/03 08:41:17;;;;;;;17.90;7.68;;;20.30;74.70;;;;;;5014658;28;20049;-74
2023/07/03 08:43:48;;;;;;;17.38;7.78;;;20.60;74.00;;;;;;5014509;28;20030;-73
2023/07/03 08:46:19;;;;;;;20.70;7.63;;;20.90;73.40;;;;;;5007642;28;20304;-74
2023/07/03 08:48:47;;;;;;;17.30;7.63;;;20.60;71.70;;;;;;4998844;28;20033;-74
2023/07/03 08:51:18;;;;;;;14.80;6.97;;;20.20;72.60;;;;;;5015095;28;20018;-76
2023/07/03 08:53:47;;;;;;;17.83;7.78;;;20.00;73.60;;;;;;5016368;28;20491;-75
2023/07/03 08:56:20;;;;;;;21.15;8.85;;;20.00;74.30;;;;;;5015498;28;20392;-75
2023/07/03 08:58:46;;;;;;;19.10;8.45;;;20.30;73.30;;;;;;5016105;28;20061;-74
2023/07/03 09:01:45;;;;;;;17.70;7.57;;;20.20;72.80;;;;;;5014555;28;20021;-75
2023/07/03 09:04:38;;;;;;;16.92;7.45;;;20.40;72.50;;;;;;5014354;28;20022;-74
2023/07/03 09:07:09;;;;;;;16.08;7.05;;;20.50;72.80;;;;;;5014983;28;20104;-75
2023/07/03 09:09:57;;;;;;;20.40;7.40;;;20.60;73.20;;;;;;5016149;28;20021;-75
2023/07/03 09:12:32;;;;;;;18.55;7.35;;;21.10;71.60;;;;;;5016155;28;20022;-75
2023/07/03 09:15:18;;;;;;;18.13;7.05;;;21.00;71.70;;;;;;5014075;28;20030;-74
2023/07/03 09:17:46;;;;;;;17.15;7.30;;;21.10;70.30;;;;;;5008033;28;20045;-74
2023/07/03 09:20:14;;;;;;;20.25;7.47;;;21.20;70.00;;;;;;5014291;28;20041;-74
2023/07/03 09:22:50;;;;;;;17.67;7.45;;;21.80;69.80;;;;;;4997633;28;20022;-75
2023/07/03 09:25:26;;;;;;;15.32;7.00;;;21.90;68.60;;;;;;5015116;28;20026;-75
2023/07/03 09:27:54;;;;;;;16.90;7.50;;;21.80;68.60;;;;;;5015081;28;20362;-75
2023/07/03 09:30:20;;;;;;;17.90;7.10;;;21.50;69.40;;;;;;5012859;28;20030;-75
2023/07/03 09:32:45;;;;;;;15.82;7.32;;;21.10;69.20;;;;;;5013336;28;20373;-74
2023/07/03 09:35:11;;;;;;;18.40;7.00;;;20.80;69.70;;;;;;5015769;28;20023;-74
2023/07/03 09:37:39;;;;;;;15.63;6.55;;;21.60;68.80;;;;;;5016910;28;20026;-74
2023/07/03 09:40:09;;;;;;;17.90;7.40;;;22.80;67.30;;;;;;5017864;28;20026;-74
2023/07/03 09:42:39;;;;;;;17.88;7.45;;;23.30;65.70;;;;;;5011559;28;20085;-74
2023/07/03 09:45:16;;;;;;;16.75;7.13;;;23.20;65.40;;;;;;5000382;28;20026;-74
2023/07/03 09:47:55;;;;;;;17.00;7.20;;;22.70;66.30;;;;;;5015736;28;20033;-74
2023/07/03 09:50:25;;;;;;;15.57;6.95;;;21.80;68.00;;;;;;5007431;28;20415;-74
2023/07/03 09:52:55;;;;;;;17.27;7.85;;;22.00;68.70;;;;;;5000079;28;20117;-74
2023/07/03 09:55:22;;;;;;;17.63;7.60;;;22.20;68.20;;;;;;5008081;28;20068;-74
2023/07/03 09:57:48;;;;;;;19.77;7.53;;;21.80;69.30;;;;;;5002117;28;20033;-75
2023/07/03 10:00:22;;;;;;;18.73;7.28;;;21.10;69.40;;;;;;5019470;28;20044;-74
2023/07/03 10:02:57;;;;;;;17.00;7.57;;;20.50;71.20;;;;;;5005216;28;20113;-73
2023/07/03 10:05:32;;;;;;;19.30;7.72;;;20.30;72.10;;;;;;4998605;28;20125;-73
2023/07/03 10:08:04;;;;;;;13.70;6.80;;;20.40;72.30;;;;;;4999715;28;20034;-74
2023/07/03 10:10:33;;;;;;;14.63;7.00;;;21.30;69.90;;;;;;4999516;28;20053;-74
2023/07/03 10:13:12;;;;;;;19.90;7.53;;;21.70;69.30;;;;;;5014515;28;20325;-74
2023/07/03 10:15:41;;;;;;;18.02;7.20;;;21.70;69.90;;;;;;5034237;28;20033;-74
2023/07/03 10:18:13;;;;;;;14.98;6.85;;;21.60;69.00;;;;;;5018244;28;20118;-74
2023/07/03 10:20:43;;;;;;;14.20;6.70;;;21.60;70.00;;;;;;5017925;28;20029;-74
2023/07/03 10:23:12;;;;;;;15.65;6.95;;;22.80;67.90;;;;;;5018955;28;20080;-73
2023/07/03 10:25:42;;;;;;;17.48;7.68;;;22.70;66.80;;;;;;5018790;28;20346;-74
2023/07/03 10:28:17;;;;;;;16.25;6.97;;;21.70;69.00;;;;;;5018306;28;20105;-74
2023/07/03 10:30:43;;;;;;;14.68;6.63;;;20.90;71.60;;;;;;5018053;28;20026;-73
2023/07/03 10:33:18;;;;;;;14.23;6.43;;;20.40;70.10;;;;;;5018686;28;20109;-73
2023/07/03 10:35:49;;;;;;;14.75;6.65;;;21.30;70.20;;;;;;5017670;28;20034;-73
2023/07/03 10:38:23;;;;;;;16.58;7.35;;;21.20;70.30;;;;;;5017008;28;20489;-74
2023/07/03 10:41:10;;;;;;;15.90;7.25;;;21.10;70.40;;;;;;5018477;28;20049;-74
2023/07/03 10:43:43;;;;;;;18.33;6.90;;;20.60;71.50;;;;;;5017393;28;20034;-74
2023/07/03 10:46:21;;;;;;;15.68;7.15;;;21.60;70.30;;;;;;4999488;28;20060;-73
2023/07/03 10:48:49;;;;;;;15.32;7.00;;;22.60;67.10;;;;;;5018419;28;20042;-73
2023/07/03 10:51:23;;;;;;;14.65;6.20;;;22.80;66.10;;;;;;5016078;28;20510;-74
2023/07/03 10:53:49;;;;;;;11.73;5.88;;;22.90;64.30;;;;;;5017829;28;20034;-73
2023/07/03 10:56:31;;;;;;;14.15;6.10;;;23.40;64.60;;;;;;5018358;28;20083;-74
2023/07/03 10:59:10;;;;;;;15.48;6.82;;;24.00;63.90;;;;;;5018331;28;20037;-73
2023/07/03 11:01:48;;;;;;;15.60;6.50;;;23.40;66.10;;;;;;5018342;28;20026;-74
2023/07/03 11:04:40;;;;;;;11.85;5.10;;;23.40;65.00;;;;;;5017425;28;20322;-74
2023/07/03 11:07:32;;;;;;;11.88;5.25;;;24.20;64.10;;;;;;4979947;28;20045;-74
2023/07/03 11:10:17;;;;;;;13.35;5.38;;;24.00;61.80;;;;;;4998466;28;20419;-74
2023/07/03 11:13:02;;;;;;;13.40;5.43;;;24.00;61.70;;;;;;4998519;28;20022;-73
2023/07/03 11:15:51;;;;;;;11.10;5.40;;;24.10;61.20;;;;;;5015412;28;20088;-74
2023/07/03 11:18:48;;;;;;;11.57;4.38;;;24.30;61.60;;;;;;5015580;28;20029;-74
2023/07/03 11:21:32;;;;;;;12.75;4.50;;;24.20;61.60;;;;;;5013957;28;20022;-73
2023/07/03 11:24:16;;;;;;;;;;;23.70;63.20;;;;;;5015213;28;20026;-73
2023/07/03 11:27:03;;;;;;;12.43;4.82;;;23.30;64.10;;;;;;5016244;28;19909;-74
2023/07/03 11:29:29;;;;;;;12.60;4.65;;;22.10;66.20;;;;;;5015907;28;20415;-74
2023/07/03 11:31:56;;;;;;;14.18;4.95;;;21.70;67.90;;;;;;5014824;28;20322;-74
2023/07/03 11:34:23;;;;;;;13.55;5.20;;;21.90;68.10;;;;;;5017398;28;20026;-73
2023/07/03 11:36:52;;;;;;;12.27;4.15;;;21.60;67.70;;;;;;5010651;28;20018;-73
2023/07/03 11:39:24;;;;;;;10.43;4.60;;;21.60;68.20;;;;;;4999281;28;20034;-73
2023/07/03 11:42:02;;;;;;;8.82;3.90;;;22.00;68.30;;;;;;5015462;28;20334;-73
2023/07/03 11:44:27;;;;;;;9.32;3.92;;;22.50;67.60;;;;;;5015648;28;20092;-74
2023/07/03 11:47:04;;;;;;;10.68;3.90;;;22.90;65.90;;;;;;5010257;28;20419;-73
2023/07/03 11:49:32;;;;;;;8.30;3.70;;;22.40;65.30;;;;;;5018095;28;20327;-75
2023/07/03 11:52:01;;;;;;;8.63;3.40;;;22.40;66.30;;;;;;5020023;28;20041;-73
2023/07/03 11:54:28;;;;;;;11.27;4.28;;;22.40;66.40;;;;;;4997221;28;20401;-74
2023/07/03 11:57:32;;;;;;;6.80;2.92;;;23.00;65.50;;;;;;5013038;28;20493;-74
2023/07/03 12:00:27;;;;;;;8.20;3.00;;;23.60;64.50;;;;;;5016334;28;20038;-74
2023/07/03 12:03:06;;;;;;;7.40;3.08;;;24.80;62.50;;;;;;5014640;28;20033;-74
2023/07/03 12:05:44;;;;;;;10.00;3.15;;;25.50;60.80;;;;;;5012475;28;20329;-74
2023/07/03 12:08:29;;;;;;;5.32;2.40;;;24.60;61.10;;;;;;5011813;28;20076;-73
2023/07/03 12:10:58;;;;;;;6.22;2.72;;;24.00;61.40;;;;;;5033832;28;20429;-74
2023/07/03 12:13:42;;;;;;;7.40;2.63;;;23.40;62.90;;;;;;5016851;28;20341;-74
2023/07/03 12:16:32;;;;;;;6.50;2.88;;;23.00;63.60;;;;;;4998734;28;20040;-73
2023/07/03 12:19:04;;;;;;;7.72;2.95;;;22.50;64.70;;;;;;4999753;28;20311;-74
2023/07/03 12:21:36;;;;;;;8.15;3.55;;;22.80;65.30;;;;;;5014863;28;20074;-74
2023/07/03 12:24:17;;;;;;;10.55;3.20;;;23.40;65.60;;;;;;5026603;28;20025;-74
2023/07/03 12:26:51;;;;;;;8.68;3.60;;;24.20;63.10;;;;;;5019017;28;20022;-74
2023/07/03 12:29:18;;;;;;;8.15;3.40;;;24.70;61.70;;;;;;5026397;28;20423;-74
2023/07/03 12:31:54;;;;;;;9.38;3.80;;;24.90;62.30;;;;;;5016565;28;20044;-74
2023/07/03 12:34:24;;;;;;;9.25;3.58;;;25.30;61.40;;;;;;5015964;28;20056;-74
2023/07/03 12:36:50;;;;;;;8.80;3.70;;;25.40;61.40;;;;;;5012922;28;20026;-73
2023/07/03 12:39:16;;;;;;;7.57;3.33;;;24.20;62.40;;;;;;5011681;28;20033;-73
2023/07/03 12:41:43;;;;;;;8.20;3.67;;;23.60;64.50;;;;;;5008977;28;20045;-73
2023/07/03 12:44:10;;;;;;;10.13;3.95;;;24.40;63.50;;;;;;5012919;28;20054;-73
2023/07/03 12:46:39;;;;;;;8.68;3.90;;;24.40;63.20;;;;;;5022802;28;20030;-72
2023/07/03 12:49:11;;;;;;;10.15;3.88;;;24.90;62.10;;;;;;5015509;28;20026;-73